sensor_id;sensor_type;location;lat;lon;timestamp;temperature;humidity
74488;DHT22;63019;51.080;13.642;2023-03-01T00:00:34;-2.20;99.90
74488;DHT22;63019;51.080;13.642;2023-03-01T00:01:36;-2.20;99.90
74488;DHT22;63019;51.080;13.642;2023-03-01T00:02:38;-2.20;99.90
74488;DHT22;63019;51.080;13.642;2023-03-01T00:03:40;-2.30;99.90
74488;DHT22;63019;51.080;13.642;2023-03-01T00:04:42;-2.30;99.90
74488;DHT22;63019;51.080;13.642;2023-03-01T00:05:47;-2.30;99.90
74488;DHT22;63019;51.080;13.642;2023-03-01T00:06:48;-2.30;99.90
74488;DHT22;63019;51.080;13.642;2023-03-01T00:07:53;-2.30;99.90
74488;DHT22;63019;51.080;13.642;2023-03-01T00:08:55;-2.20;99.90
74488;DHT22;63019;51.080;13.642;2023-03-01T00:09:56;-2.20;99.90
74488;DHT22;63019;51.080;13.642;2023-03-01T00:11:05;-2.20;99.90
74488;DHT22;63019;51.080;13.642;2023-03-01T00:12:07;-2.20;99.90
74488;DHT22;63019;51.080;13.642;2023-03-01T00:13:09;-2.30;99.90
74488;DHT22;63019;51.080;13.642;2023-03-01T00:14:11;-2.30;99.90
74488;DHT22;63019;51.080;13.642;2023-03-01T00:15:13;-2.30;99.90
74488;DHT22;63019;51.080;13.642;2023-03-01T00:16:23;-2.30;99.90
74488;DHT22;63019;51.080;13.642;2023-03-01T00:17:27;-2.30;99.90
74488;DHT22;63019;51.080;13.642;2023-03-01T00:18:29;-2.30;99.90
74488;DHT22;63019;51.080;13.642;2023-03-01T00:19:31;-2.40;99.90
74488;DHT22;63019;51.080;13.642;2023-03-01T00:20:34;-2.40;99.90
74488;DHT22;63019;51.080;13.642;2023-03-01T00:21:36;-2.40;99.90
74488;DHT22;63019;51.080;13.642;2023-03-01T00:22:38;-2.40;99.90
74488;DHT22;63019;51.080;13.642;2023-03-01T00:23:40;-2.50;99.90
74488;DHT22;63019;51.080;13.642;2023-03-01T00:24:41;-2.50;99.90
74488;DHT22;63019;51.080;13.642;2023-03-01T00:25:43;-2.50;99.90
74488;DHT22;63019;51.080;13.642;2023-03-01T00:26:45;-2.50;99.90
74488;DHT22;63019;51.080;13.642;2023-03-01T00:27:48;-2.50;99.90
74488;DHT22;63019;51.080;13.642;2023-03-01T00:28:51;-2.50;99.90
74488;DHT22;63019;51.080;13.642;2023-03-01T00:29:53;-2.50;99.90
74488;DHT22;63019;51.080;13.642;2023-03-01T00:30:54;-2.60;99.90
74488;DHT22;63019;51.080;13.642;2023-03-01T00:31:56;-2.70;99.90
74488;DHT22;63019;51.080;13.642;2023-03-01T00:32:58;-2.70;99.90
74488;DHT22;63019;51.080;13.642;2023-03-01T00:34:03;-2.70;99.90
74488;DHT22;63019;51.080;13.642;2023-03-01T00:35:05;-2.70;99.90
74488;DHT22;63019;51.080;13.642;2023-03-01T00:36:07;-2.70;99.90
74488;DHT22;63019;51.080;13.642;2023-03-01T00:37:10;-2.80;99.90
74488;DHT22;63019;51.080;13.642;2023-03-01T00:38:12;-2.80;99.90
74488;DHT22;63019;51.080;13.642;2023-03-01T00:39:15;-2.80;99.90
74488;DHT22;63019;51.080;13.642;2023-03-01T00:40:17;-2.70;99.90
74488;DHT22;63019;51.080;13.642;2023-03-01T00:41:19;-2.70;99.90
74488;DHT22;63019;51.080;13.642;2023-03-01T00:42:22;-2.70;99.90
74488;DHT22;63019;51.080;13.642;2023-03-01T00:43:23;-2.70;99.90
74488;DHT22;63019;51.080;13.642;2023-03-01T00:44:25;-2.70;99.90
74488;DHT22;63019;51.080;13.642;2023-03-01T00:45:27;-2.70;99.90
74488;DHT22;63019;51.080;13.642;2023-03-01T00:46:29;-2.70;99.90
74488;DHT22;63019;51.080;13.642;2023-03-01T00:47:32;-2.70;99.90
74488;DHT22;63019;51.080;13.642;2023-03-01T00:48:34;-2.70;99.90
74488;DHT22;63019;51.080;13.642;2023-03-01T00:49:36;-2.70;99.90
74488;DHT22;63019;51.080;13.642;2023-03-01T00:50:38;-2.80;99.90
74488;DHT22;63019;51.080;13.642;2023-03-01T00:51:40;-2.80;99.90
74488;DHT22;63019;51.080;13.642;2023-03-01T00:52:43;-2.70;99.90
74488;DHT22;63019;51.080;13.642;2023-03-01T00:53:46;-2.70;99.90
74488;DHT22;63019;51.080;13.642;2023-03-01T00:54:48;-2.70;99.90
74488;DHT22;63019;51.080;13.642;2023-03-01T00:55:50;-2.70;99.90
74488;DHT22;63019;51.080;13.642;2023-03-01T00:56:51;-2.70;99.90
74488;DHT22;63019;51.080;13.642;2023-03-01T00:57:53;-2.70;99.90
74488;DHT22;63019;51.080;13.642;2023-03-01T00:58:55;-2.70;99.90
74488;DHT22;63019;51.080;13.642;2023-03-01T00:59:57;-2.70;99.90
74488;DHT22;63019;51.080;13.642;2023-03-01T01:00:59;-2.70;99.90
74488;DHT22;63019;51.080;13.642;2023-03-01T01:02:01;-2.70;99.90
74488;DHT22;63019;51.080;13.642;2023-03-01T01:03:02;-2.70;99.90
74488;DHT22;63019;51.080;13.642;2023-03-01T01:04:07;-2.70;99.90
74488;DHT22;63019;51.080;13.642;2023-03-01T01:05:09;-2.70;99.90
74488;DHT22;63019;51.080;13.642;2023-03-01T01:06:35;-2.70;99.90
74488;DHT22;63019;51.080;13.642;2023-03-01T01:07:37;-2.70;99.90
74488;DHT22;63019;51.080;13.642;2023-03-01T01:08:39;-2.60;99.90
74488;DHT22;63019;51.080;13.642;2023-03-01T01:09:41;-2.60;99.90
74488;DHT22;63019;51.080;13.642;2023-03-01T01:10:44;-2.70;99.90
74488;DHT22;63019;51.080;13.642;2023-03-01T01:11:48;-2.70;99.90
74488;DHT22;63019;51.080;13.642;2023-03-01T01:12:50;-2.70;99.90
74488;DHT22;63019;51.080;13.642;2023-03-01T01:13:52;-2.70;99.90
74488;DHT22;63019;51.080;13.642;2023-03-01T01:14:54;-2.70;99.90
74488;DHT22;63019;51.080;13.642;2023-03-01T01:16:01;-2.70;99.90
74488;DHT22;63019;51.080;13.642;2023-03-01T01:17:03;-2.70;99.90
74488;DHT22;63019;51.080;13.642;2023-03-01T01:18:05;-2.80;99.90
74488;DHT22;63019;51.080;13.642;2023-03-01T01:19:07;-2.80;99.90
74488;DHT22;63019;51.080;13.642;2023-03-01T01:20:09;-2.80;99.90
74488;DHT22;63019;51.080;13.642;2023-03-01T01:21:14;-2.90;99.90
74488;DHT22;63019;51.080;13.642;2023-03-01T01:22:16;-2.90;99.90
74488;DHT22;63019;51.080;13.642;2023-03-01T01:23:18;-2.80;99.90
74488;DHT22;63019;51.080;13.642;2023-03-01T01:24:20;-2.80;99.90
74488;DHT22;63019;51.080;13.642;2023-03-01T01:25:22;-2.80;99.90
74488;DHT22;63019;51.080;13.642;2023-03-01T01:26:28;-2.90;99.90
74488;DHT22;63019;51.080;13.642;2023-03-01T01:27:31;-2.90;99.90
74488;DHT22;63019;51.080;13.642;2023-03-01T01:28:33;-2.90;99.90
74488;DHT22;63019;51.080;13.642;2023-03-01T01:29:35;-3.00;99.90
74488;DHT22;63019;51.080;13.642;2023-03-01T01:30:36;-3.00;99.90
74488;DHT22;63019;51.080;13.642;2023-03-01T01:31:40;-3.00;99.90
74488;DHT22;63019;51.080;13.642;2023-03-01T01:32:42;-3.00;99.90
74488;DHT22;63019;51.080;13.642;2023-03-01T01:33:44;-3.00;99.90
74488;DHT22;63019;51.080;13.642;2023-03-01T01:34:45;-3.00;99.90
74488;DHT22;63019;51.080;13.642;2023-03-01T01:35:48;-3.10;99.90
74488;DHT22;63019;51.080;13.642;2023-03-01T01:36:51;-3.10;99.90
74488;DHT22;63019;51.080;13.642;2023-03-01T01:37:55;-3.10;99.90
74488;DHT22;63019;51.080;13.642;2023-03-01T01:38:57;-3.10;99.90
74488;DHT22;63019;51.080;13.642;2023-03-01T01:40:02;-3.10;99.90
74488;DHT22;63019;51.080;13.642;2023-03-01T01:41:08;-3.10;99.90
74488;DHT22;63019;51.080;13.642;2023-03-01T01:42:15;-3.10;99.90
74488;DHT22;63019;51.080;13.642;2023-03-01T01:43:39;-3.20;99.90
74488;DHT22;63019;51.080;13.642;2023-03-01T01:44:45;-3.20;99.90
74488;DHT22;63019;51.080;13.642;2023-03-01T01:45:48;-3.20;99.90
74488;DHT22;63019;51.080;13.642;2023-03-01T01:48:04;-3.20;99.90
74488;DHT22;63019;51.080;13.642;2023-03-01T01:49:15;-3.20;99.90
74488;DHT22;63019;51.080;13.642;2023-03-01T01:50:19;-3.20;99.90
74488;DHT22;63019;51.080;13.642;2023-03-01T01:51:28;-3.30;99.90
74488;DHT22;63019;51.080;13.642;2023-03-01T01:52:35;-3.30;99.90
74488;DHT22;63019;51.080;13.642;2023-03-01T01:53:38;-3.30;99.90
74488;DHT22;63019;51.080;13.642;2023-03-01T01:55:08;-3.30;99.90
74488;DHT22;63019;51.080;13.642;2023-03-01T01:56:13;-3.30;99.90
74488;DHT22;63019;51.080;13.642;2023-03-01T01:57:19;-3.30;99.90
74488;DHT22;63019;51.080;13.642;2023-03-01T01:58:24;-3.40;99.90
74488;DHT22;63019;51.080;13.642;2023-03-01T01:59:30;-3.40;99.90
74488;DHT22;63019;51.080;13.642;2023-03-01T02:00:32;-3.40;99.90
74488;DHT22;63019;51.080;13.642;2023-03-01T02:01:34;-3.30;99.90
74488;DHT22;63019;51.080;13.642;2023-03-01T02:02:37;-3.40;99.90
74488;DHT22;63019;51.080;13.642;2023-03-01T02:03:42;-3.40;99.90
74488;DHT22;63019;51.080;13.642;2023-03-01T02:04:48;-3.40;99.90
74488;DHT22;63019;51.080;13.642;2023-03-01T02:05:55;-3.40;99.90
74488;DHT22;63019;51.080;13.642;2023-03-01T02:07:03;-3.40;99.90
74488;DHT22;63019;51.080;13.642;2023-03-01T02:08:08;-3.40;99.90
74488;DHT22;63019;51.080;13.642;2023-03-01T02:09:14;-3.40;99.90
74488;DHT22;63019;51.080;13.642;2023-03-01T02:10:17;-3.40;99.90
74488;DHT22;63019;51.080;13.642;2023-03-01T02:11:19;-3.40;99.90
74488;DHT22;63019;51.080;13.642;2023-03-01T02:12:24;-3.40;99.90
74488;DHT22;63019;51.080;13.642;2023-03-01T02:13:26;-3.30;99.90
74488;DHT22;63019;51.080;13.642;2023-03-01T02:14:28;-3.40;99.90
74488;DHT22;63019;51.080;13.642;2023-03-01T02:15:35;-3.40;99.90
74488;DHT22;63019;51.080;13.642;2023-03-01T02:16:38;-3.40;99.90
74488;DHT22;63019;51.080;13.642;2023-03-01T02:17:40;-3.30;99.90
74488;DHT22;63019;51.080;13.642;2023-03-01T02:18:43;-3.40;99.90
74488;DHT22;63019;51.080;13.642;2023-03-01T02:19:55;-3.40;99.90
74488;DHT22;63019;51.080;13.642;2023-03-01T02:21:17;-3.40;99.90
74488;DHT22;63019;51.080;13.642;2023-03-01T02:22:24;-3.40;99.90
74488;DHT22;63019;51.080;13.642;2023-03-01T02:23:28;-3.40;99.90
74488;DHT22;63019;51.080;13.642;2023-03-01T02:27:16;-3.40;99.90
74488;DHT22;63019;51.080;13.642;2023-03-01T02:28:25;-3.40;99.90
74488;DHT22;63019;51.080;13.642;2023-03-01T02:29:28;-3.40;99.90
74488;DHT22;63019;51.080;13.642;2023-03-01T02:30:31;-3.40;99.90
74488;DHT22;63019;51.080;13.642;2023-03-01T02:31:33;-3.40;99.90
74488;DHT22;63019;51.080;13.642;2023-03-01T02:32:44;-3.40;99.90
74488;DHT22;63019;51.080;13.642;2023-03-01T02:33:47;-3.40;99.90
74488;DHT22;63019;51.080;13.642;2023-03-01T02:34:56;-3.40;99.90
74488;DHT22;63019;51.080;13.642;2023-03-01T02:36:09;-3.40;99.90
74488;DHT22;63019;51.080;13.642;2023-03-01T02:37:14;-3.40;99.90
74488;DHT22;63019;51.080;13.642;2023-03-01T02:38:23;-3.40;99.90
74488;DHT22;63019;51.080;13.642;2023-03-01T02:39:30;-3.40;99.90
74488;DHT22;63019;51.080;13.642;2023-03-01T02:40:34;-3.40;99.90
74488;DHT22;63019;51.080;13.642;2023-03-01T02:41:37;-3.40;99.90
74488;DHT22;63019;51.080;13.642;2023-03-01T02:42:51;-3.40;99.90
74488;DHT22;63019;51.080;13.642;2023-03-01T02:43:53;-3.40;99.90
74488;DHT22;63019;51.080;13.642;2023-03-01T02:44:55;-3.40;99.90
74488;DHT22;63019;51.080;13.642;2023-03-01T02:45:59;-3.40;99.90
74488;DHT22;63019;51.080;13.642;2023-03-01T02:47:03;-3.40;99.90
74488;DHT22;63019;51.080;13.642;2023-03-01T02:48:06;-3.40;99.90
74488;DHT22;63019;51.080;13.642;2023-03-01T02:49:26;-3.30;99.90
74488;DHT22;63019;51.080;13.642;2023-03-01T02:54:28;-3.40;99.90
74488;DHT22;63019;51.080;13.642;2023-03-01T02:55:30;-3.40;99.90
74488;DHT22;63019;51.080;13.642;2023-03-01T02:56:32;-3.50;99.90
74488;DHT22;63019;51.080;13.642;2023-03-01T02:57:36;-3.50;99.90
74488;DHT22;63019;51.080;13.642;2023-03-01T02:58:41;-3.50;99.90
74488;DHT22;63019;51.080;13.642;2023-03-01T02:59:47;-3.50;99.90
74488;DHT22;63019;51.080;13.642;2023-03-01T03:00:50;-3.50;99.90
74488;DHT22;63019;51.080;13.642;2023-03-01T03:01:52;-3.60;99.90
74488;DHT22;63019;51.080;13.642;2023-03-01T03:02:54;-3.50;99.90
74488;DHT22;63019;51.080;13.642;2023-03-01T03:04:00;-3.50;99.90
74488;DHT22;63019;51.080;13.642;2023-03-01T03:06:10;-3.50;99.90
74488;DHT22;63019;51.080;13.642;2023-03-01T03:07:11;-3.50;99.90
74488;DHT22;63019;51.080;13.642;2023-03-01T03:08:13;-3.60;99.90
74488;DHT22;63019;51.080;13.642;2023-03-01T03:09:18;-3.50;99.90
74488;DHT22;63019;51.080;13.642;2023-03-01T03:10:24;-3.50;99.90
74488;DHT22;63019;51.080;13.642;2023-03-01T03:11:26;-3.50;99.90
74488;DHT22;63019;51.080;13.642;2023-03-01T03:12:28;-3.50;99.90
74488;DHT22;63019;51.080;13.642;2023-03-01T03:13:30;-3.50;99.90
74488;DHT22;63019;51.080;13.642;2023-03-01T03:14:32;-3.50;99.90
74488;DHT22;63019;51.080;13.642;2023-03-01T03:15:36;-3.40;99.90
74488;DHT22;63019;51.080;13.642;2023-03-01T03:16:45;-3.40;99.90
74488;DHT22;63019;51.080;13.642;2023-03-01T03:17:48;-3.40;99.90
74488;DHT22;63019;51.080;13.642;2023-03-01T03:18:50;-3.40;99.90
74488;DHT22;63019;51.080;13.642;2023-03-01T03:19:52;-3.50;99.90
74488;DHT22;63019;51.080;13.642;2023-03-01T03:20:54;-3.50;99.90
74488;DHT22;63019;51.080;13.642;2023-03-01T03:21:56;-3.50;99.90
74488;DHT22;63019;51.080;13.642;2023-03-01T03:22:58;-3.60;99.90
74488;DHT22;63019;51.080;13.642;2023-03-01T03:24:00;-3.50;99.90
74488;DHT22;63019;51.080;13.642;2023-03-01T03:25:02;-3.60;99.90
74488;DHT22;63019;51.080;13.642;2023-03-01T03:26:05;-3.50;99.90
74488;DHT22;63019;51.080;13.642;2023-03-01T03:27:08;-3.60;99.90
74488;DHT22;63019;51.080;13.642;2023-03-01T03:28:10;-3.50;99.90
74488;DHT22;63019;51.080;13.642;2023-03-01T03:29:12;-3.50;99.90
74488;DHT22;63019;51.080;13.642;2023-03-01T03:30:17;-3.50;99.90
74488;DHT22;63019;51.080;13.642;2023-03-01T03:31:19;-3.50;99.90
74488;DHT22;63019;51.080;13.642;2023-03-01T03:32:20;-3.60;99.90
74488;DHT22;63019;51.080;13.642;2023-03-01T03:33:22;-3.60;99.90
74488;DHT22;63019;51.080;13.642;2023-03-01T03:34:24;-3.60;99.90
74488;DHT22;63019;51.080;13.642;2023-03-01T03:35:29;-3.70;99.90
74488;DHT22;63019;51.080;13.642;2023-03-01T03:36:32;-3.70;99.90
74488;DHT22;63019;51.080;13.642;2023-03-01T03:37:33;-3.60;99.90
74488;DHT22;63019;51.080;13.642;2023-03-01T03:38:54;-3.60;99.90
74488;DHT22;63019;51.080;13.642;2023-03-01T03:39:56;-3.60;99.90
74488;DHT22;63019;51.080;13.642;2023-03-01T03:41:06;-3.60;99.90
74488;DHT22;63019;51.080;13.642;2023-03-01T03:42:09;-3.60;99.90
74488;DHT22;63019;51.080;13.642;2023-03-01T03:43:17;-3.60;99.90
74488;DHT22;63019;51.080;13.642;2023-03-01T03:44:20;-3.60;99.90
74488;DHT22;63019;51.080;13.642;2023-03-01T03:45:22;-3.70;99.90
74488;DHT22;63019;51.080;13.642;2023-03-01T03:46:24;-3.70;99.90
74488;DHT22;63019;51.080;13.642;2023-03-01T03:47:26;-3.70;99.90
74488;DHT22;63019;51.080;13.642;2023-03-01T03:48:28;-3.80;99.90
74488;DHT22;63019;51.080;13.642;2023-03-01T03:49:30;-3.80;99.90
74488;DHT22;63019;51.080;13.642;2023-03-01T03:50:32;-3.80;99.90
74488;DHT22;63019;51.080;13.642;2023-03-01T03:51:34;-3.90;99.90
74488;DHT22;63019;51.080;13.642;2023-03-01T03:52:36;-3.90;99.90
74488;DHT22;63019;51.080;13.642;2023-03-01T03:53:38;-3.90;99.90
74488;DHT22;63019;51.080;13.642;2023-03-01T03:54:40;-3.90;99.90
74488;DHT22;63019;51.080;13.642;2023-03-01T03:55:42;-4.00;99.90
74488;DHT22;63019;51.080;13.642;2023-03-01T03:56:45;-4.00;99.90
74488;DHT22;63019;51.080;13.642;2023-03-01T03:57:48;-4.00;99.90
74488;DHT22;63019;51.080;13.642;2023-03-01T03:58:53;-3.90;99.90
74488;DHT22;63019;51.080;13.642;2023-03-01T03:59:54;-4.00;99.90
74488;DHT22;63019;51.080;13.642;2023-03-01T04:00:57;-4.10;99.90
74488;DHT22;63019;51.080;13.642;2023-03-01T04:01:59;-4.10;99.90
74488;DHT22;63019;51.080;13.642;2023-03-01T04:03:01;-4.10;99.90
74488;DHT22;63019;51.080;13.642;2023-03-01T04:04:03;-4.10;99.90
74488;DHT22;63019;51.080;13.642;2023-03-01T04:05:07;-4.10;99.90
74488;DHT22;63019;51.080;13.642;2023-03-01T04:06:09;-4.20;99.90
74488;DHT22;63019;51.080;13.642;2023-03-01T04:07:11;-4.20;99.90
74488;DHT22;63019;51.080;13.642;2023-03-01T04:08:13;-4.20;99.90
74488;DHT22;63019;51.080;13.642;2023-03-01T04:09:14;-4.20;99.90
74488;DHT22;63019;51.080;13.642;2023-03-01T04:10:18;-4.30;99.90
74488;DHT22;63019;51.080;13.642;2023-03-01T04:11:20;-4.30;99.90
74488;DHT22;63019;51.080;13.642;2023-03-01T04:12:28;-4.30;99.90
74488;DHT22;63019;51.080;13.642;2023-03-01T04:13:29;-4.30;99.90
74488;DHT22;63019;51.080;13.642;2023-03-01T04:14:31;-4.30;99.90
74488;DHT22;63019;51.080;13.642;2023-03-01T04:15:33;-4.30;99.90
74488;DHT22;63019;51.080;13.642;2023-03-01T04:16:35;-4.30;99.90
74488;DHT22;63019;51.080;13.642;2023-03-01T04:17:37;-4.30;99.90
74488;DHT22;63019;51.080;13.642;2023-03-01T04:18:39;-4.30;99.90
74488;DHT22;63019;51.080;13.642;2023-03-01T04:19:40;-4.30;99.90
74488;DHT22;63019;51.080;13.642;2023-03-01T04:20:45;-4.30;99.90
74488;DHT22;63019;51.080;13.642;2023-03-01T04:21:47;-4.20;99.90
74488;DHT22;63019;51.080;13.642;2023-03-01T04:22:56;-4.20;99.90
74488;DHT22;63019;51.080;13.642;2023-03-01T04:23:58;-4.20;99.90
74488;DHT22;63019;51.080;13.642;2023-03-01T04:25:00;-4.20;99.90
74488;DHT22;63019;51.080;13.642;2023-03-01T04:26:07;-4.20;99.90
74488;DHT22;63019;51.080;13.642;2023-03-01T04:27:09;-4.20;99.90
74488;DHT22;63019;51.080;13.642;2023-03-01T04:28:11;-4.20;99.90
74488;DHT22;63019;51.080;13.642;2023-03-01T04:29:13;-4.20;99.90
74488;DHT22;63019;51.080;13.642;2023-03-01T04:30:15;-4.20;99.90
74488;DHT22;63019;51.080;13.642;2023-03-01T04:31:18;-4.20;99.90
74488;DHT22;63019;51.080;13.642;2023-03-01T04:32:22;-4.10;99.90
74488;DHT22;63019;51.080;13.642;2023-03-01T04:33:25;-4.10;99.90
74488;DHT22;63019;51.080;13.642;2023-03-01T04:34:27;-4.10;99.90
74488;DHT22;63019;51.080;13.642;2023-03-01T04:35:29;-4.10;99.90
74488;DHT22;63019;51.080;13.642;2023-03-01T04:36:31;-4.10;99.90
74488;DHT22;63019;51.080;13.642;2023-03-01T04:37:34;-4.10;99.90
74488;DHT22;63019;51.080;13.642;2023-03-01T04:38:37;-4.10;99.90
74488;DHT22;63019;51.080;13.642;2023-03-01T04:39:39;-4.10;99.90
74488;DHT22;63019;51.080;13.642;2023-03-01T04:40:47;-4.10;99.90
74488;DHT22;63019;51.080;13.642;2023-03-01T04:41:49;-4.10;99.90
74488;DHT22;63019;51.080;13.642;2023-03-01T04:42:50;-4.20;99.90
74488;DHT22;63019;51.080;13.642;2023-03-01T04:43:52;-4.10;99.90
74488;DHT22;63019;51.080;13.642;2023-03-01T04:44:54;-4.10;99.90
74488;DHT22;63019;51.080;13.642;2023-03-01T04:46:02;-4.10;99.90
74488;DHT22;63019;51.080;13.642;2023-03-01T04:47:04;-4.10;99.90
74488;DHT22;63019;51.080;13.642;2023-03-01T04:48:06;-4.10;99.90
74488;DHT22;63019;51.080;13.642;2023-03-01T04:49:08;-4.20;99.90
74488;DHT22;63019;51.080;13.642;2023-03-01T04:50:12;-4.20;99.90
74488;DHT22;63019;51.080;13.642;2023-03-01T04:51:15;-4.20;99.90
74488;DHT22;63019;51.080;13.642;2023-03-01T04:52:17;-4.20;99.90
74488;DHT22;63019;51.080;13.642;2023-03-01T04:53:19;-4.20;99.90
74488;DHT22;63019;51.080;13.642;2023-03-01T04:54:21;-4.20;99.90
74488;DHT22;63019;51.080;13.642;2023-03-01T04:55:23;-4.20;99.90
74488;DHT22;63019;51.080;13.642;2023-03-01T04:56:27;-4.20;99.90
74488;DHT22;63019;51.080;13.642;2023-03-01T04:57:29;-4.20;99.90
74488;DHT22;63019;51.080;13.642;2023-03-01T04:58:31;-4.30;99.90
74488;DHT22;63019;51.080;13.642;2023-03-01T04:59:33;-4.30;99.90
74488;DHT22;63019;51.080;13.642;2023-03-01T05:00:37;-4.20;99.90
74488;DHT22;63019;51.080;13.642;2023-03-01T05:01:39;-4.10;99.90
74488;DHT22;63019;51.080;13.642;2023-03-01T05:02:44;-4.10;99.90
74488;DHT22;63019;51.080;13.642;2023-03-01T05:03:48;-4.10;99.90
74488;DHT22;63019;51.080;13.642;2023-03-01T05:04:50;-4.20;99.90
74488;DHT22;63019;51.080;13.642;2023-03-01T05:05:53;-4.20;99.90
74488;DHT22;63019;51.080;13.642;2023-03-01T05:06:55;-4.20;99.90
74488;DHT22;63019;51.080;13.642;2023-03-01T05:08:00;-4.20;99.90
74488;DHT22;63019;51.080;13.642;2023-03-01T05:09:02;-4.20;99.90
74488;DHT22;63019;51.080;13.642;2023-03-01T05:10:04;-4.20;99.90
74488;DHT22;63019;51.080;13.642;2023-03-01T05:11:06;-4.20;99.90
74488;DHT22;63019;51.080;13.642;2023-03-01T05:12:10;-4.20;99.90
74488;DHT22;63019;51.080;13.642;2023-03-01T05:13:13;-4.20;99.90
74488;DHT22;63019;51.080;13.642;2023-03-01T05:14:16;-4.20;99.90
74488;DHT22;63019;51.080;13.642;2023-03-01T05:15:18;-4.20;99.90
74488;DHT22;63019;51.080;13.642;2023-03-01T05:16:23;-4.20;99.90
74488;DHT22;63019;51.080;13.642;2023-03-01T05:17:24;-4.20;99.90
74488;DHT22;63019;51.080;13.642;2023-03-01T05:18:28;-4.20;99.90
74488;DHT22;63019;51.080;13.642;2023-03-01T05:19:30;-4.20;99.90
74488;DHT22;63019;51.080;13.642;2023-03-01T05:20:32;-4.20;99.90
74488;DHT22;63019;51.080;13.642;2023-03-01T05:21:38;-4.20;99.90
74488;DHT22;63019;51.080;13.642;2023-03-01T05:23:01;-4.20;99.90
74488;DHT22;63019;51.080;13.642;2023-03-01T05:24:07;-4.30;99.90
74488;DHT22;63019;51.080;13.642;2023-03-01T05:25:13;-4.30;99.90
74488;DHT22;63019;51.080;13.642;2023-03-01T05:26:17;-4.30;99.90
74488;DHT22;63019;51.080;13.642;2023-03-01T05:27:29;-4.30;99.90
74488;DHT22;63019;51.080;13.642;2023-03-01T05:28:31;-4.30;99.90
74488;DHT22;63019;51.080;13.642;2023-03-01T05:29:33;-4.30;99.90
74488;DHT22;63019;51.080;13.642;2023-03-01T05:30:36;-4.30;99.90
74488;DHT22;63019;51.080;13.642;2023-03-01T05:31:40;-4.30;99.90
74488;DHT22;63019;51.080;13.642;2023-03-01T05:32:47;-4.30;99.90
74488;DHT22;63019;51.080;13.642;2023-03-01T05:33:49;-4.30;99.90
74488;DHT22;63019;51.080;13.642;2023-03-01T05:34:51;-4.30;99.90
74488;DHT22;63019;51.080;13.642;2023-03-01T05:35:53;-4.30;99.90
74488;DHT22;63019;51.080;13.642;2023-03-01T05:36:56;-4.40;99.90
74488;DHT22;63019;51.080;13.642;2023-03-01T05:37:58;-4.30;99.90
74488;DHT22;63019;51.080;13.642;2023-03-01T05:38:59;-4.30;99.90
74488;DHT22;63019;51.080;13.642;2023-03-01T05:40:02;-4.40;99.90
74488;DHT22;63019;51.080;13.642;2023-03-01T05:41:05;-4.50;99.90
74488;DHT22;63019;51.080;13.642;2023-03-01T05:42:09;-4.50;99.90
74488;DHT22;63019;51.080;13.642;2023-03-01T05:43:13;-4.50;99.90
74488;DHT22;63019;51.080;13.642;2023-03-01T05:44:15;-4.50;99.90
74488;DHT22;63019;51.080;13.642;2023-03-01T05:45:18;-4.50;99.90
74488;DHT22;63019;51.080;13.642;2023-03-01T05:46:20;-4.50;99.90
74488;DHT22;63019;51.080;13.642;2023-03-01T05:47:21;-4.50;99.90
74488;DHT22;63019;51.080;13.642;2023-03-01T05:48:23;-4.50;99.90
74488;DHT22;63019;51.080;13.642;2023-03-01T05:49:25;-4.50;99.90
74488;DHT22;63019;51.080;13.642;2023-03-01T05:50:29;-4.50;99.90
74488;DHT22;63019;51.080;13.642;2023-03-01T05:51:31;-4.50;99.90
74488;DHT22;63019;51.080;13.642;2023-03-01T05:52:33;-4.50;99.90
74488;DHT22;63019;51.080;13.642;2023-03-01T05:53:36;-4.50;99.90
74488;DHT22;63019;51.080;13.642;2023-03-01T05:54:37;-4.50;99.90
74488;DHT22;63019;51.080;13.642;2023-03-01T05:55:40;-4.50;99.90
74488;DHT22;63019;51.080;13.642;2023-03-01T05:56:43;-4.50;99.90
74488;DHT22;63019;51.080;13.642;2023-03-01T05:57:45;-4.50;99.90
74488;DHT22;63019;51.080;13.642;2023-03-01T05:58:48;-4.50;99.90
74488;DHT22;63019;51.080;13.642;2023-03-01T05:59:51;-4.50;99.90
74488;DHT22;63019;51.080;13.642;2023-03-01T06:00:52;-4.50;99.90
74488;DHT22;63019;51.080;13.642;2023-03-01T06:01:56;-4.50;99.90
74488;DHT22;63019;51.080;13.642;2023-03-01T06:02:59;-4.50;99.90
74488;DHT22;63019;51.080;13.642;2023-03-01T06:04:02;-4.50;99.90
74488;DHT22;63019;51.080;13.642;2023-03-01T06:05:06;-4.50;99.90
74488;DHT22;63019;51.080;13.642;2023-03-01T06:06:08;-4.50;99.90
74488;DHT22;63019;51.080;13.642;2023-03-01T06:07:10;-4.50;99.90
74488;DHT22;63019;51.080;13.642;2023-03-01T06:08:12;-4.50;99.90
74488;DHT22;63019;51.080;13.642;2023-03-01T06:09:14;-4.50;99.90
74488;DHT22;63019;51.080;13.642;2023-03-01T06:10:16;-4.50;99.90
74488;DHT22;63019;51.080;13.642;2023-03-01T06:11:19;-4.50;99.90
74488;DHT22;63019;51.080;13.642;2023-03-01T06:12:21;-4.50;99.90
74488;DHT22;63019;51.080;13.642;2023-03-01T06:13:23;-4.60;99.90
74488;DHT22;63019;51.080;13.642;2023-03-01T06:14:25;-4.60;99.90
74488;DHT22;63019;51.080;13.642;2023-03-01T06:15:27;-4.60;99.90
74488;DHT22;63019;51.080;13.642;2023-03-01T06:16:29;-4.60;99.90
74488;DHT22;63019;51.080;13.642;2023-03-01T06:17:34;-4.60;99.90
74488;DHT22;63019;51.080;13.642;2023-03-01T06:18:39;-4.60;99.90
74488;DHT22;63019;51.080;13.642;2023-03-01T06:19:41;-4.60;99.90
74488;DHT22;63019;51.080;13.642;2023-03-01T06:20:42;-4.60;99.90
74488;DHT22;63019;51.080;13.642;2023-03-01T06:21:44;-4.50;99.90
74488;DHT22;63019;51.080;13.642;2023-03-01T06:22:47;-4.50;99.90
74488;DHT22;63019;51.080;13.642;2023-03-01T06:23:49;-4.40;99.90
74488;DHT22;63019;51.080;13.642;2023-03-01T06:24:51;-4.40;99.90
74488;DHT22;63019;51.080;13.642;2023-03-01T06:25:53;-4.40;99.90
74488;DHT22;63019;51.080;13.642;2023-03-01T06:26:54;-4.40;99.90
74488;DHT22;63019;51.080;13.642;2023-03-01T06:27:57;-4.40;99.90
74488;DHT22;63019;51.080;13.642;2023-03-01T06:28:59;-4.40;99.90
74488;DHT22;63019;51.080;13.642;2023-03-01T06:30:01;-4.40;99.90
74488;DHT22;63019;51.080;13.642;2023-03-01T06:31:03;-4.30;99.90
74488;DHT22;63019;51.080;13.642;2023-03-01T06:32:05;-4.40;99.90
74488;DHT22;63019;51.080;13.642;2023-03-01T06:33:07;-4.30;99.90
74488;DHT22;63019;51.080;13.642;2023-03-01T06:34:09;-4.30;99.90
74488;DHT22;63019;51.080;13.642;2023-03-01T06:35:16;-4.30;99.90
74488;DHT22;63019;51.080;13.642;2023-03-01T06:36:21;-4.30;99.90
74488;DHT22;63019;51.080;13.642;2023-03-01T06:37:23;-4.20;99.90
74488;DHT22;63019;51.080;13.642;2023-03-01T06:38:25;-4.20;99.90
74488;DHT22;63019;51.080;13.642;2023-03-01T06:39:27;-4.20;99.90
74488;DHT22;63019;51.080;13.642;2023-03-01T06:40:30;-4.20;99.90
74488;DHT22;63019;51.080;13.642;2023-03-01T06:41:33;-4.20;99.90
74488;DHT22;63019;51.080;13.642;2023-03-01T06:42:35;-4.20;99.90
74488;DHT22;63019;51.080;13.642;2023-03-01T06:43:37;-4.20;99.90